createdAt,value
2022-09-15T00:01:50.495Z,2.00
2022-09-15T00:04:51.886Z,1.80
2022-09-15T00:07:53.252Z,1.90
2022-09-15T00:10:58.373Z,2.13
2022-09-15T00:14:01.605Z,1.73
2022-09-15T00:17:03.349Z,1.60
2022-09-15T00:20:06.488Z,2.00
2022-09-15T00:23:08.940Z,1.90
2022-09-15T00:26:12.659Z,1.50
2022-09-15T00:29:14.024Z,1.70
2022-09-15T00:32:15.429Z,1.70
2022-09-15T00:35:17.537Z,1.50
2022-09-15T00:38:20.153Z,1.80
2022-09-15T00:41:24.136Z,1.73
2022-09-15T00:44:25.436Z,1.50
2022-09-15T00:47:32.695Z,1.67
2022-09-15T00:50:35.993Z,1.83
2022-09-15T00:53:37.758Z,1.60
2022-09-15T00:56:42.705Z,1.77
2022-09-15T00:59:45.533Z,1.40
2022-09-15T01:02:49.245Z,1.83
2022-09-15T01:06:01.462Z,1.77
2022-09-15T01:09:07.589Z,2.00
2022-09-15T01:12:09.072Z,1.50
2022-09-15T01:15:10.780Z,1.60
2022-09-15T01:18:27.395Z,1.53
2022-09-15T01:21:36.573Z,1.70
2022-09-15T01:24:59.733Z,1.40
2022-09-15T01:28:38.730Z,1.40
2022-09-15T01:32:06.465Z,1.63
2022-09-15T01:35:20.556Z,1.73
2022-09-15T01:39:12.140Z,1.50
2022-09-15T01:42:15.796Z,1.43
2022-09-15T01:45:26.014Z,1.40
2022-09-15T01:48:29.647Z,1.73
2022-09-15T01:51:32.209Z,1.63
2022-09-15T01:54:39.975Z,1.40
2022-09-15T01:57:41.649Z,1.40
2022-09-15T02:00:49.508Z,1.60
2022-09-15T02:03:56.173Z,1.60
2022-09-15T02:07:26.632Z,1.47
2022-09-15T02:10:48.961Z,1.70
2022-09-15T02:14:13.586Z,1.93
2022-09-15T02:17:18.757Z,1.60
2022-09-15T02:20:33.034Z,2.10
2022-09-15T02:23:40.602Z,1.40
2022-09-15T02:26:43.051Z,1.50
2022-09-15T02:29:47.678Z,1.90
2022-09-15T02:32:56.061Z,1.60
2022-09-15T02:35:57.853Z,1.87
2022-09-15T02:39:04.887Z,1.60
2022-09-15T02:42:06.829Z,1.77
2022-09-15T02:45:08.899Z,2.13
2022-09-15T02:48:10.325Z,2.27
2022-09-15T02:51:11.896Z,1.47
2022-09-15T02:54:13.737Z,1.30
2022-09-15T02:57:15.124Z,1.30
2022-09-15T03:00:17.426Z,1.80
2022-09-15T03:03:21.000Z,1.83
2022-09-15T03:06:22.632Z,1.40
2022-09-15T03:09:24.240Z,1.50
2022-09-15T03:12:26.240Z,1.40
2022-09-15T03:15:27.791Z,1.53
2022-09-15T03:18:29.158Z,1.50
2022-09-15T03:21:30.635Z,1.53
2022-09-15T03:24:32.037Z,1.70
2022-09-15T03:27:34.689Z,1.50
2022-09-15T03:30:36.078Z,1.73
2022-09-15T03:33:37.633Z,1.90
2022-09-15T03:36:39.006Z,1.53
2022-09-15T03:39:40.393Z,1.87
2022-09-15T03:42:41.884Z,1.60
2022-09-15T03:45:43.383Z,1.70
2022-09-15T03:48:45.204Z,1.60
2022-09-15T03:51:46.576Z,1.53
2022-09-15T03:54:48.763Z,1.67
2022-09-15T03:57:50.198Z,1.60
2022-09-15T04:00:51.606Z,2.03
2022-09-15T04:03:53.596Z,2.17
2022-09-15T04:06:55.033Z,2.00
2022-09-15T04:09:56.716Z,1.80
2022-09-15T04:12:58.100Z,2.00
2022-09-15T04:16:05.655Z,2.20
2022-09-15T04:19:07.456Z,1.93
2022-09-15T04:22:08.941Z,1.97
2022-09-15T04:25:10.663Z,1.70
2022-09-15T04:28:12.048Z,2.10
2022-09-15T04:31:15.749Z,2.30
2022-09-15T04:34:17.109Z,2.33
2022-09-15T04:37:18.838Z,1.90
2022-09-15T04:40:20.367Z,1.90
2022-09-15T04:43:22.168Z,1.97
2022-09-15T04:46:23.677Z,2.10
2022-09-15T04:49:25.167Z,1.93
2022-09-15T04:52:26.586Z,2.10
2022-09-15T04:55:27.937Z,2.00
2022-09-15T04:58:29.450Z,1.80
2022-09-15T05:01:34.003Z,2.27
2022-09-15T05:04:35.690Z,2.03
2022-09-15T05:07:37.052Z,2.30
2022-09-15T05:10:39.040Z,1.90
2022-09-15T05:13:40.776Z,2.20
2022-09-15T05:16:42.321Z,2.50
2022-09-15T05:19:43.787Z,1.97
2022-09-15T05:22:45.389Z,2.23
2022-09-15T05:25:54.615Z,2.70
2022-09-15T05:28:57.247Z,2.60
2022-09-15T05:31:58.614Z,2.10
2022-09-15T05:35:00.094Z,1.53
2022-09-15T05:38:02.061Z,1.27
2022-09-15T05:41:13.654Z,1.50
2022-09-15T05:44:15.137Z,1.60
2022-09-15T05:47:16.867Z,1.80
2022-09-15T05:50:18.221Z,1.60
2022-09-15T05:53:20.754Z,1.60
2022-09-15T05:56:22.227Z,1.70
2022-09-15T05:59:23.634Z,1.23
2022-09-15T06:02:25.130Z,1.50
2022-09-15T06:05:26.685Z,1.20
2022-09-15T06:08:35.861Z,1.40
2022-09-15T06:11:37.241Z,1.50
2022-09-15T06:14:38.614Z,1.60
2022-09-15T06:17:40.085Z,1.60
2022-09-15T06:20:41.447Z,1.43
2022-09-15T06:23:47.174Z,1.80
2022-09-15T06:26:51.391Z,1.30
2022-09-15T06:29:53.377Z,1.30
2022-09-15T06:32:54.737Z,1.43
2022-09-15T06:35:56.167Z,1.47
2022-09-15T06:38:58.421Z,1.77
2022-09-15T06:42:02.796Z,1.80
2022-09-15T06:45:05.885Z,2.20
2022-09-15T06:48:23.611Z,3.37
2022-09-15T06:51:28.769Z,4.03
2022-09-15T06:54:31.222Z,4.40
2022-09-15T06:57:32.710Z,4.77
2022-09-15T07:00:34.760Z,4.87
2022-09-15T07:03:37.859Z,5.13
2022-09-15T07:06:39.550Z,5.23
2022-09-15T07:09:41.425Z,5.50
2022-09-15T07:12:43.355Z,5.63
2022-09-15T07:15:58.775Z,6.60
2022-09-15T07:19:02.325Z,6.70
2022-09-15T07:22:04.171Z,7.17
2022-09-15T07:25:06.078Z,7.00
2022-09-15T07:28:07.510Z,6.63
2022-09-15T07:31:11.048Z,6.10
2022-09-15T07:34:12.584Z,5.23
2022-09-15T07:37:13.938Z,4.20
2022-09-15T07:40:15.476Z,3.30
2022-09-15T07:43:17.012Z,3.03
2022-09-15T07:46:20.145Z,3.13
2022-09-15T07:49:21.504Z,2.83
2022-09-15T07:52:22.965Z,2.60
2022-09-15T07:55:24.645Z,2.30
2022-09-15T07:58:25.997Z,2.73
2022-09-15T08:01:27.543Z,2.90
2022-09-15T08:04:29.058Z,2.90
2022-09-15T08:07:30.601Z,2.97
2022-09-15T08:10:32.512Z,3.83
2022-09-15T08:13:34.346Z,3.23
2022-09-15T08:16:35.878Z,3.03
2022-09-15T08:19:37.348Z,3.47
2022-09-15T08:22:39.737Z,3.07
2022-09-15T08:25:41.104Z,3.00
2022-09-15T08:28:42.707Z,3.60
2022-09-15T08:31:45.309Z,3.50
2022-09-15T08:34:46.809Z,3.00
2022-09-15T08:37:48.178Z,3.43
2022-09-15T08:40:49.605Z,3.03
2022-09-15T08:43:57.942Z,3.37
2022-09-15T08:47:27.594Z,2.87
2022-09-15T08:50:35.184Z,3.30
2022-09-15T08:53:45.507Z,3.33
2022-09-15T08:56:48.492Z,3.20
2022-09-15T08:59:49.890Z,2.80
2022-09-15T09:02:59.974Z,3.10
2022-09-15T09:06:27.231Z,2.90
2022-09-15T09:09:42.646Z,3.30
2022-09-15T09:13:03.618Z,3.10
2022-09-15T09:16:29.056Z,2.97
2022-09-15T09:19:41.145Z,3.00
2022-09-15T09:22:45.863Z,3.10
2022-09-15T09:25:49.636Z,2.90
2022-09-15T09:29:01.661Z,2.87
2022-09-15T09:32:04.234Z,3.00
2022-09-15T09:35:28.633Z,3.03
2022-09-15T09:38:39.707Z,2.90
2022-09-15T09:41:42.057Z,2.60
2022-09-15T09:44:44.122Z,2.63
2022-09-15T09:47:48.712Z,2.80
2022-09-15T09:50:50.731Z,3.30
2022-09-15T09:53:53.884Z,2.80
2022-09-15T09:57:16.665Z,2.70
2022-09-15T10:00:35.795Z,2.60
2022-09-15T10:03:38.673Z,2.70
2022-09-15T10:06:41.284Z,2.60
2022-09-15T10:09:50.333Z,3.00
2022-09-15T10:12:56.320Z,3.10
2022-09-15T10:16:00.999Z,2.77
2022-09-15T10:19:02.671Z,3.10
2022-09-15T10:22:04.808Z,3.03
2022-09-15T10:25:21.356Z,2.57
2022-09-15T10:28:26.022Z,3.10
2022-09-15T10:31:31.488Z,3.13
2022-09-15T10:34:33.027Z,3.30
2022-09-15T10:37:43.811Z,2.90
2022-09-15T10:40:47.876Z,2.27
2022-09-15T10:44:20.718Z,1.97
2022-09-15T10:47:24.979Z,2.40
2022-09-15T10:50:31.012Z,1.83
2022-09-15T10:53:47.544Z,2.33
2022-09-15T10:56:52.004Z,2.00
2022-09-15T11:00:04.249Z,2.00
2022-09-15T11:03:22.406Z,2.27
2022-09-15T11:06:41.633Z,2.40
2022-09-15T11:09:47.317Z,2.23
2022-09-15T11:12:57.446Z,2.00
2022-09-15T11:16:10.501Z,2.23
2022-09-15T11:19:17.964Z,2.03
2022-09-15T11:22:37.980Z,1.70
2022-09-15T11:25:46.902Z,1.90
2022-09-15T11:28:55.688Z,2.07
2022-09-15T11:32:04.571Z,2.10
2022-09-15T11:35:36.949Z,1.80
2022-09-15T11:38:47.958Z,2.00
2022-09-15T11:42:11.567Z,2.17
2022-09-15T11:45:19.931Z,2.30
2022-09-15T11:48:30.992Z,2.10
2022-09-15T11:51:38.484Z,1.80
2022-09-15T11:54:46.428Z,1.87
2022-09-15T11:57:51.576Z,1.70
2022-09-15T12:00:57.206Z,1.80
2022-09-15T12:04:03.007Z,1.60
2022-09-15T12:07:14.671Z,1.93
2022-09-15T12:10:25.910Z,1.97
2022-09-15T12:13:28.082Z,1.60
2022-09-15T12:16:30.260Z,1.53
2022-09-15T12:19:50.680Z,1.57
2022-09-15T12:23:06.985Z,1.27
2022-09-15T12:26:23.281Z,1.27
2022-09-15T12:29:27.340Z,1.80
2022-09-15T12:32:34.798Z,1.30
2022-09-15T12:35:36.156Z,1.20
2022-09-15T12:38:37.558Z,1.20
2022-09-15T12:41:47.308Z,1.60
2022-09-15T12:45:02.157Z,1.30
2022-09-15T12:48:20.232Z,1.20
2022-09-15T12:51:25.205Z,1.40
2022-09-15T12:54:30.923Z,1.53
2022-09-15T12:57:35.577Z,1.90
2022-09-15T13:00:45.535Z,1.90
2022-09-15T13:03:59.479Z,2.10
2022-09-15T13:07:16.082Z,1.63
2022-09-15T13:10:27.814Z,1.70
2022-09-15T13:13:46.136Z,2.50
2022-09-15T13:16:50.477Z,2.93
2022-09-15T13:19:59.934Z,3.27
2022-09-15T13:23:03.577Z,2.70
2022-09-15T13:26:11.001Z,2.80
2022-09-15T13:29:15.503Z,2.70
2022-09-15T13:32:35.616Z,2.87
2022-09-15T13:35:52.398Z,3.40
2022-09-15T13:39:31.690Z,3.40
2022-09-15T13:43:04.932Z,4.17
2022-09-15T13:46:33.152Z,4.47
2022-09-15T13:50:19.740Z,4.57
2022-09-15T13:53:44.621Z,5.70
2022-09-15T13:56:53.009Z,4.27
2022-09-15T13:59:54.921Z,4.17
2022-09-15T14:03:02.752Z,4.50
2022-09-15T14:06:14.238Z,5.97
2022-09-15T14:09:20.024Z,5.70
2022-09-15T14:12:21.530Z,6.00
2022-09-15T14:15:25.438Z,5.50
2022-09-15T14:18:28.281Z,5.40
2022-09-15T14:21:34.463Z,5.60
2022-09-15T14:24:40.143Z,5.53
2022-09-15T14:27:45.475Z,5.17
2022-09-15T14:30:48.449Z,5.30
2022-09-15T14:33:49.870Z,5.07
2022-09-15T14:37:23.745Z,5.00
2022-09-15T14:40:35.306Z,4.87
2022-09-15T14:43:41.936Z,5.00
2022-09-15T14:46:43.452Z,4.57
2022-09-15T14:49:44.943Z,4.10
2022-09-15T14:52:58.121Z,4.00
2022-09-15T14:56:22.216Z,3.90
2022-09-15T14:59:32.743Z,3.83
2022-09-15T15:02:59.061Z,3.80
2022-09-15T15:06:34.603Z,2.70
2022-09-15T15:09:44.886Z,2.80
2022-09-15T15:12:50.594Z,2.87
2022-09-15T15:15:52.805Z,2.40
2022-09-15T15:18:56.934Z,2.90
2022-09-15T15:22:26.986Z,2.80
2022-09-15T15:25:32.298Z,2.63
2022-09-15T15:28:35.920Z,2.60
2022-09-15T15:31:39.920Z,2.90
2022-09-15T15:34:49.313Z,3.10
2022-09-15T15:38:02.212Z,2.70
2022-09-15T15:41:06.340Z,2.63
2022-09-15T15:44:26.468Z,2.77
2022-09-15T15:47:31.320Z,2.70
2022-09-15T15:50:32.746Z,2.83
2022-09-15T15:53:34.345Z,2.70
2022-09-15T15:56:37.972Z,2.43
2022-09-15T15:59:39.541Z,2.57
2022-09-15T16:02:41.020Z,2.73
2022-09-15T16:05:45.953Z,2.57
2022-09-15T16:08:47.486Z,2.53
2022-09-15T16:11:49.072Z,2.57
2022-09-15T16:14:50.508Z,2.80
2022-09-15T16:17:51.869Z,2.67
2022-09-15T16:20:53.783Z,2.53
2022-09-15T16:23:55.181Z,2.80
2022-09-15T16:26:56.565Z,2.70
2022-09-15T16:29:57.996Z,2.67
2022-09-15T16:32:59.714Z,2.33
2022-09-15T16:36:06.707Z,2.77
2022-09-15T16:39:08.216Z,2.20
2022-09-15T16:42:10.636Z,2.50
2022-09-15T16:45:20.315Z,2.40
2022-09-15T16:48:21.755Z,2.50
2022-09-15T16:51:29.979Z,2.60
2022-09-15T16:54:33.292Z,2.50
2022-09-15T16:57:34.647Z,2.50
2022-09-15T17:00:37.485Z,2.70
2022-09-15T17:03:39.290Z,2.60
2022-09-15T17:06:40.726Z,2.23
2022-09-15T17:09:42.238Z,2.30
2022-09-15T17:12:44.043Z,2.50
2022-09-15T17:15:46.709Z,2.70
2022-09-15T17:18:48.284Z,2.30
2022-09-15T17:21:50.205Z,2.30
2022-09-15T17:24:51.585Z,2.43
2022-09-15T17:27:53.795Z,2.20
2022-09-15T17:31:00.183Z,2.43
2022-09-15T17:34:02.146Z,2.63
2022-09-15T17:37:03.558Z,2.23
2022-09-15T17:40:05.386Z,2.20
2022-09-15T17:43:15.262Z,2.57
2022-09-15T17:46:16.813Z,2.43
2022-09-15T17:49:18.299Z,2.10
2022-09-15T17:52:19.855Z,2.50
2022-09-15T17:55:26.720Z,2.73
2022-09-15T17:58:29.867Z,2.53
2022-09-15T18:01:31.309Z,3.33
2022-09-15T18:04:33.067Z,2.53
2022-09-15T18:07:34.721Z,3.30
2022-09-15T18:10:36.455Z,2.83
2022-09-15T18:13:37.864Z,2.60
2022-09-15T18:16:39.605Z,2.40
2022-09-15T18:19:40.984Z,2.90
2022-09-15T18:22:43.523Z,3.10
2022-09-15T18:25:46.942Z,3.00
2022-09-15T18:28:48.310Z,2.90
2022-09-15T18:31:49.672Z,3.37
2022-09-15T18:34:51.044Z,3.10
2022-09-15T18:37:57.739Z,3.00
2022-09-15T18:41:00.109Z,3.10
2022-09-15T18:44:01.708Z,3.10
2022-09-15T18:47:03.112Z,3.10
2022-09-15T18:50:06.513Z,3.20
2022-09-15T18:53:08.200Z,3.13
2022-09-15T18:56:11.113Z,3.20
2022-09-15T18:59:15.528Z,3.20
2022-09-15T19:02:19.324Z,3.50
2022-09-15T19:05:20.801Z,3.33
2022-09-15T19:08:22.975Z,3.30
2022-09-15T19:11:25.930Z,3.60
2022-09-15T19:14:29.074Z,3.40
2022-09-15T19:17:30.871Z,3.47
2022-09-15T19:20:32.262Z,3.17
2022-09-15T19:23:35.495Z,3.47
2022-09-15T19:26:37.256Z,3.90
2022-09-15T19:29:39.005Z,3.87
2022-09-15T19:32:41.030Z,3.70
2022-09-15T19:35:42.883Z,3.60
2022-09-15T19:38:44.412Z,3.50
2022-09-15T19:41:46.310Z,3.63
2022-09-15T19:44:49.285Z,3.50
2022-09-15T19:47:50.668Z,3.80
2022-09-15T19:50:52.081Z,3.37
2022-09-15T19:53:55.607Z,3.50
2022-09-15T19:56:57.641Z,3.83
2022-09-15T19:59:59.019Z,5.50
2022-09-15T20:03:00.384Z,3.80
2022-09-15T20:06:05.973Z,3.40
2022-09-15T20:09:08.101Z,3.60
2022-09-15T20:12:09.522Z,3.23
2022-09-15T20:15:11.395Z,3.90
2022-09-15T20:18:13.328Z,3.50
2022-09-15T20:21:32.522Z,3.30
2022-09-15T20:24:40.476Z,3.20
2022-09-15T20:27:42.592Z,3.23
2022-09-15T20:30:44.000Z,3.20
2022-09-15T20:33:47.116Z,3.33
2022-09-15T20:36:48.859Z,3.70
2022-09-15T20:39:51.343Z,3.40
2022-09-15T20:42:52.812Z,3.20
2022-09-15T20:46:03.003Z,3.70
2022-09-15T20:49:04.916Z,3.70
2022-09-15T20:52:06.331Z,3.67
2022-09-15T20:55:08.256Z,3.77
2022-09-15T20:58:10.837Z,4.03
2022-09-15T21:01:17.967Z,3.90
2022-09-15T21:04:19.706Z,3.83
2022-09-15T21:07:21.138Z,4.33
2022-09-15T21:10:24.301Z,4.10
2022-09-15T21:13:29.250Z,3.77
2022-09-15T21:16:31.174Z,3.70
2022-09-15T21:19:32.589Z,3.70
2022-09-15T21:22:34.169Z,4.00
2022-09-15T21:25:35.586Z,4.10
2022-09-15T21:28:38.475Z,4.20
2022-09-15T21:31:39.872Z,3.87
2022-09-15T21:34:41.261Z,4.13
2022-09-15T21:37:42.757Z,3.60
2022-09-15T21:40:48.368Z,4.00
2022-09-15T21:43:55.457Z,4.27
2022-09-15T21:46:57.336Z,3.80
2022-09-15T21:49:59.986Z,3.80
2022-09-15T21:53:01.581Z,3.53
2022-09-15T21:56:05.076Z,3.30
2022-09-15T21:59:08.888Z,3.53
2022-09-15T22:02:11.487Z,3.70
2022-09-15T22:05:13.037Z,3.63
2022-09-15T22:08:16.129Z,3.40
2022-09-15T22:11:17.495Z,3.77
2022-09-15T22:14:18.935Z,3.63
2022-09-15T22:17:21.410Z,3.80
2022-09-15T22:20:23.170Z,4.00
2022-09-15T22:23:24.780Z,4.13
2022-09-15T22:26:29.746Z,4.00
2022-09-15T22:29:31.220Z,4.30
2022-09-15T22:32:32.685Z,3.53
2022-09-15T22:35:34.044Z,3.07
2022-09-15T22:38:35.739Z,3.50
2022-09-15T22:41:38.709Z,3.23
2022-09-15T22:44:40.085Z,3.50
2022-09-15T22:47:41.629Z,3.07
2022-09-15T22:50:46.131Z,3.20
2022-09-15T22:53:48.001Z,3.20
2022-09-15T22:56:49.390Z,3.10
2022-09-15T22:59:50.740Z,2.80
2022-09-15T23:02:52.442Z,2.70
2022-09-15T23:05:58.210Z,2.70
2022-09-15T23:09:03.268Z,2.57
2022-09-15T23:12:05.027Z,2.77
2022-09-15T23:15:07.161Z,2.60
2022-09-15T23:18:08.602Z,2.90
2022-09-15T23:21:11.753Z,2.47
2022-09-15T23:24:13.824Z,2.60
2022-09-15T23:27:15.262Z,2.43
2022-09-15T23:30:16.788Z,2.47
2022-09-15T23:33:18.687Z,2.30
2022-09-15T23:36:20.136Z,2.30
2022-09-15T23:39:21.589Z,2.40
2022-09-15T23:42:22.973Z,2.30
2022-09-15T23:45:24.409Z,2.40
2022-09-15T23:48:26.641Z,2.10
2022-09-15T23:51:28.171Z,2.17
2022-09-15T23:54:29.574Z,2.30
2022-09-15T23:57:31.189Z,2.20
